Time;durP1;ratioP1;P1;durP2;ratioP2;P2;SDS_P1;SDS_P2;PMS_P1;PMS_P2;Temp;Humidity;BMP_temperature;BMP_pressure;BME280_temperature;BME280_humidity;BME280_pressure;Samples;Min_cycle;Max_cycle;Signal;HPM_P1;HPM_P2
2023/08/24 00:00:51;;;;;;;10.00;4.22;;;;;;;;;;5055401;28;20561;-90
2023/08/24 00:03:16;;;;;;;10.98;3.65;;;;;;;;;;5082443;28;20028;-90
2023/08/24 00:05:51;;;;;;;8.70;3.70;;;;;;;;;;5061457;28;20486;-89
2023/08/24 00:08:17;;;;;;;5.97;3.53;;;;;;;;;;5043513;28;20080;-89
2023/08/24 00:10:43;;;;;;;8.10;3.40;;;;;;;;;;5055727;28;20571;-90
2023/08/24 00:13:09;;;;;;;5.57;3.83;;;;;;;;;;5056036;28;20020;-89
2023/08/24 00:15:35;;;;;;;6.80;3.42;;;;;;;;;;5056286;28;20012;-90
2023/08/24 00:18:01;;;;;;;9.38;3.90;;;;;;;;;;5055777;28;20029;-90
2023/08/24 00:20:27;;;;;;;9.55;3.80;;;;;;;;;;5065836;28;20027;-90
2023/08/24 00:22:52;;;;;;;8.30;3.70;;;;;;;;;;5055576;28;20024;-90
2023/08/24 00:25:18;;;;;;;5.90;3.00;;;;;;;;;;5073133;28;20412;-90
2023/08/24 00:27:43;;;;;;;9.73;3.35;;;;;;;;;;5059583;28;20025;-91
2023/08/24 00:30:10;;;;;;;6.15;3.17;;;;;;;;;;5059504;28;20044;-90
2023/08/24 00:32:36;;;;;;;6.05;3.08;;;;;;;;;;5058922;28;20074;-91
2023/08/24 00:35:06;;;;;;;7.30;3.92;;;;;;;;;;5062442;28;20092;-90
2023/08/24 00:37:31;;;;;;;11.85;3.55;;;;;;;;;;5077009;28;20103;-90
2023/08/24 00:39:59;;;;;;;7.18;3.67;;;;;;;;;;5059523;28;20051;-90
2023/08/24 00:42:27;;;;;;;6.80;3.78;;;;;;;;;;5058405;28;20604;-90
2023/08/24 00:44:52;;;;;;;8.23;3.88;;;;;;;;;;5059471;28;20025;-89
2023/08/24 00:47:17;;;;;;;9.52;3.95;;;;;;;;;;5058132;28;20031;-90
2023/08/24 00:49:45;;;;;;;8.93;4.88;;;;;;;;;;5076695;28;20025;-90
2023/08/24 00:52:11;;;;;;;10.10;4.25;;;;;;;;;;5058474;28;20536;-90
2023/08/24 00:54:38;;;;;;;8.85;4.63;;;;;;;;;;5059366;28;20032;-90
2023/08/24 00:57:04;;;;;;;7.18;3.70;;;;;;;;;;5074509;28;20024;-90
2023/08/24 00:59:29;;;;;;;9.20;4.05;;;;;;;;;;5075982;28;20024;-90
2023/08/24 01:01:57;;;;;;;7.68;4.38;;;;;;;;;;5058757;28;20055;-90
2023/08/24 01:04:22;;;;;;;9.23;4.03;;;;;;;;;;5075360;28;20112;-90
2023/08/24 01:06:48;;;;;;;17.02;5.40;;;;;;;;;;5057502;28;20103;-90
2023/08/24 01:09:22;;;;;;;14.10;5.35;;;;;;;;;;5075595;28;20096;-90
2023/08/24 01:11:57;;;;;;;10.75;5.40;;;;;;;;;;5076882;28;20017;-90
2023/08/24 01:14:44;;;;;;;11.90;5.53;;;;;;;;;;5063388;28;20013;-90
2023/08/24 01:17:12;;;;;;;11.32;5.13;;;;;;;;;;5075213;28;20024;-90
2023/08/24 01:19:41;;;;;;;11.07;5.50;;;;;;;;;;5076245;28;20058;-90
2023/08/24 01:22:20;;;;;;;12.52;5.07;;;;;;;;;;5091553;28;20384;-90
2023/08/24 01:24:48;;;;;;;10.73;5.07;;;;;;;;;;5058933;28;20024;-90
2023/08/24 01:27:14;;;;;;;12.52;5.20;;;;;;;;;;5058330;28;20079;-91
2023/08/24 01:29:40;;;;;;;8.80;4.93;;;;;;;;;;5077351;28;20044;-90
2023/08/24 01:32:09;;;;;;;8.65;4.10;;;;;;;;;;5058998;28;20020;-90
2023/08/24 01:34:36;;;;;;;9.27;4.90;;;;;;;;;;5077127;28;20019;-90
2023/08/24 01:37:01;;;;;;;7.78;4.85;;;;;;;;;;5074343;28;20055;-90
2023/08/24 01:39:30;;;;;;;10.82;4.88;;;;;;;;;;5058311;28;20070;-90
2023/08/24 01:42:00;;;;;;;13.25;5.28;;;;;;;;;;5058447;28;20038;-89
2023/08/24 01:44:27;;;;;;;11.85;5.10;;;;;;;;;;5095255;28;20017;-90
2023/08/24 01:46:53;;;;;;;10.55;4.72;;;;;;;;;;5064612;28;20202;-90
2023/08/24 01:49:19;;;;;;;8.35;4.30;;;;;;;;;;5057793;28;20107;-90
2023/08/24 01:51:45;;;;;;;10.35;5.40;;;;;;;;;;5074713;28;20143;-90
2023/08/24 01:54:11;;;;;;;8.02;4.97;;;;;;;;;;5072654;28;20056;-90
2023/08/24 01:56:36;;;;;;;9.05;4.85;;;;;;;;;;5046683;28;20028;-90
2023/08/24 01:59:02;;;;;;;9.23;4.90;;;;;;;;;;5056721;28;20073;-90
2023/08/24 02:01:29;;;;;;;9.45;4.35;;;;;;;;;;5057026;28;20107;-89
2023/08/24 02:03:55;;;;;;;10.52;5.00;;;;;;;;;;5057395;28;20380;-90
2023/08/24 02:06:21;;;;;;;9.80;4.28;;;;;;;;;;5075121;28;20039;-90
2023/08/24 02:08:47;;;;;;;10.05;4.70;;;;;;;;;;5053956;28;20021;-89
2023/08/24 02:11:12;;;;;;;9.10;4.53;;;;;;;;;;5061613;28;20031;-90
2023/08/24 02:13:37;;;;;;;9.02;4.13;;;;;;;;;;5068177;28;20027;-89
2023/08/24 02:16:03;;;;;;;7.07;3.97;;;;;;;;;;5075084;28;20104;-90
2023/08/24 02:18:28;;;;;;;10.30;4.90;;;;;;;;;;5073491;28;20427;-89
2023/08/24 02:20:54;;;;;;;13.95;4.72;;;;;;;;;;5085483;28;20099;-90
2023/08/24 02:23:19;;;;;;;10.50;5.10;;;;;;;;;;5057143;28;20028;-90
2023/08/24 02:25:44;;;;;;;13.10;5.32;;;;;;;;;;5105952;28;20027;-90
2023/08/24 02:28:09;;;;;;;9.00;5.43;;;;;;;;;;5076982;28;20534;-89
2023/08/24 02:30:37;;;;;;;9.95;4.78;;;;;;;;;;5073192;28;20032;-90
2023/08/24 02:33:02;;;;;;;9.75;5.28;;;;;;;;;;5056626;28;20420;-90
2023/08/24 02:35:27;;;;;;;8.85;5.20;;;;;;;;;;5084854;28;20078;-90
2023/08/24 02:37:54;;;;;;;14.35;5.35;;;;;;;;;;5059993;28;20065;-90
2023/08/24 02:40:20;;;;;;;12.60;5.63;;;;;;;;;;5056093;28;20025;-89
2023/08/24 02:42:45;;;;;;;10.23;5.20;;;;;;;;;;5070161;28;20115;-88
2023/08/24 02:45:10;;;;;;;10.43;6.00;;;;;;;;;;5064026;28;20104;-88
2023/08/24 02:47:39;;;;;;;12.48;5.93;;;;;;;;;;5084470;28;20055;-88
2023/08/24 02:50:06;;;;;;;11.45;6.18;;;;;;;;;;5079330;28;20050;-88
2023/08/24 02:52:32;;;;;;;12.13;6.97;;;;;;;;;;5060514;28;20054;-89
2023/08/24 02:54:57;;;;;;;14.25;5.95;;;;;;;;;;5075680;28;20107;-88
2023/08/24 02:57:23;;;;;;;11.13;6.35;;;;;;;;;;5058103;28;20066;-88
2023/08/24 02:59:51;;;;;;;14.45;6.78;;;;;;;;;;5077153;28;20468;-88
2023/08/24 03:02:17;;;;;;;12.30;6.63;;;;;;;;;;5061006;28;20026;-88
2023/08/24 03:04:42;;;;;;;11.50;6.03;;;;;;;;;;5057457;28;20029;-88
2023/08/24 03:07:10;;;;;;;12.55;6.13;;;;;;;;;;5056464;28;20029;-89
2023/08/24 03:09:35;;;;;;;14.50;6.82;;;;;;;;;;5055925;28;20052;-89
2023/08/24 03:12:00;;;;;;;9.60;5.72;;;;;;;;;;5064156;28;20091;-88
2023/08/24 03:14:26;;;;;;;12.00;5.82;;;;;;;;;;5066521;28;20022;-89
2023/08/24 03:16:51;;;;;;;8.57;5.53;;;;;;;;;;5057218;28;20107;-89
2023/08/24 03:19:17;;;;;;;7.20;5.20;;;;;;;;;;5094278;28;20024;-89
2023/08/24 03:21:43;;;;;;;7.88;5.63;;;;;;;;;;5083770;28;20032;-88
2023/08/24 03:24:09;;;;;;;9.20;5.60;;;;;;;;;;5074278;28;20463;-89
2023/08/24 03:26:34;;;;;;;13.18;5.25;;;;;;;;;;5093745;28;20016;-88
2023/08/24 03:28:59;;;;;;;9.13;5.35;;;;;;;;;;5059307;28;20024;-89
2023/08/24 03:31:26;;;;;;;9.07;5.60;;;;;;;;;;5074397;28;20019;-88
2023/08/24 03:33:51;;;;;;;9.10;5.25;;;;;;;;;;5055290;28;20471;-88
2023/08/24 03:36:16;;;;;;;8.48;5.72;;;;;;;;;;5055535;28;20078;-89
2023/08/24 03:38:42;;;;;;;11.02;6.07;;;;;;;;;;5055342;28;20067;-88
2023/08/24 03:41:07;;;;;;;15.75;5.75;;;;;;;;;;5069172;28;20506;-88
2023/08/24 03:43:33;;;;;;;10.32;5.63;;;;;;;;;;5063577;28;20035;-88
2023/08/24 03:45:58;;;;;;;13.43;5.65;;;;;;;;;;5075232;28;20074;-89
2023/08/24 03:48:24;;;;;;;8.70;5.43;;;;;;;;;;5062050;28;20015;-88
2023/08/24 03:50:49;;;;;;;10.65;5.90;;;;;;;;;;5074484;28;20026;-89
2023/08/24 03:53:14;;;;;;;10.65;5.88;;;;;;;;;;5057364;28;20016;-89
2023/08/24 03:55:40;;;;;;;13.75;6.35;;;;;;;;;;5052113;28;20115;-89
2023/08/24 03:58:05;;;;;;;12.73;5.40;;;;;;;;;;5053195;28;20028;-88
2023/08/24 04:00:30;;;;;;;12.27;6.28;;;;;;;;;;5073089;28;20095;-89
2023/08/24 04:02:56;;;;;;;15.07;5.82;;;;;;;;;;5096462;28;20545;-89
2023/08/24 04:05:21;;;;;;;8.88;4.88;;;;;;;;;;5071779;28;20017;-89
2023/08/24 04:07:52;;;;;;;8.43;5.13;;;;;;;;;;5093058;28;20024;-90
2023/08/24 04:10:21;;;;;;;14.43;6.32;;;;;;;;;;5059413;28;20024;-89
2023/08/24 04:12:46;;;;;;;8.07;5.28;;;;;;;;;;5095601;28;20479;-89
2023/08/24 04:15:12;;;;;;;9.98;6.07;;;;;;;;;;5094736;28;20024;-89
2023/08/24 04:17:37;;;;;;;16.23;6.50;;;;;;;;;;5071629;28;20020;-89
2023/08/24 04:20:06;;;;;;;10.20;5.78;;;;;;;;;;5074615;28;20139;-89
2023/08/24 04:22:34;;;;;;;11.18;6.28;;;;;;;;;;5097174;28;20488;-88
2023/08/24 04:25:00;;;;;;;9.40;5.95;;;;;;;;;;5064854;28;20032;-89
2023/08/24 04:27:33;;;;;;;14.13;5.95;;;;;;;;;;5059509;28;20100;-88
2023/08/24 04:29:58;;;;;;;10.20;5.65;;;;;;;;;;5075340;28;20082;-89
2023/08/24 04:32:24;;;;;;;9.73;5.32;;;;;;;;;;5075937;28;20024;-89
2023/08/24 04:34:49;;;;;;;19.10;6.22;;;;;;;;;;5071088;28;20031;-88
2023/08/24 04:37:14;;;;;;;10.70;6.50;;;;;;;;;;5058965;28;20020;-89
2023/08/24 04:39:40;;;;;;;11.07;5.78;;;;;;;;;;5058589;28;20024;-88
2023/08/24 04:42:06;;;;;;;11.02;6.07;;;;;;;;;;5088813;28;20024;-89
2023/08/24 04:44:31;;;;;;;10.10;5.95;;;;;;;;;;5059543;28;20028;-89
2023/08/24 04:46:56;;;;;;;11.65;5.93;;;;;;;;;;5075364;28;20059;-89
2023/08/24 04:49:22;;;;;;;8.20;4.78;;;;;;;;;;5075589;28;20017;-89
2023/08/24 04:51:47;;;;;;;11.07;5.85;;;;;;;;;;5066076;28;20111;-89
2023/08/24 04:54:12;;;;;;;10.45;5.72;;;;;;;;;;5096247;28;20091;-89
2023/08/24 04:56:37;;;;;;;14.20;5.75;;;;;;;;;;5064390;28;20016;-89
2023/08/24 04:59:03;;;;;;;11.68;5.65;;;;;;;;;;5084476;28;20027;-88
2023/08/24 05:01:28;;;;;;;8.95;5.45;;;;;;;;;;5078724;28;20024;-88
2023/08/24 05:03:55;;;;;;;17.83;5.90;;;;;;;;;;5061948;28;20035;-89
2023/08/24 05:06:21;;;;;;;11.98;5.93;;;;;;;;;;5071517;28;20020;-88
2023/08/24 05:08:46;;;;;;;9.77;5.80;;;;;;;;;;5075815;28;20023;-89
2023/08/24 05:11:17;;;;;;;7.60;4.82;;;;;;;;;;5088510;28;20020;-89
2023/08/24 05:13:42;;;;;;;9.30;5.43;;;;;;;;;;5062441;28;20324;-88
2023/08/24 05:16:08;;;;;;;10.43;5.72;;;;;;;;;;5091264;28;20016;-89
2023/08/24 05:18:36;;;;;;;10.57;5.22;;;;;;;;;;5057467;28;20107;-89
2023/08/24 05:21:01;;;;;;;11.68;6.55;;;;;;;;;;5078187;28;20386;-88
2023/08/24 05:23:26;;;;;;;10.18;6.30;;;;;;;;;;5077676;28;20028;-89
2023/08/24 05:25:52;;;;;;;13.82;6.88;;;;;;;;;;5073190;28;20031;-89
2023/08/24 05:28:17;;;;;;;11.27;6.03;;;;;;;;;;5068767;28;20451;-88
2023/08/24 05:30:43;;;;;;;13.07;6.25;;;;;;;;;;5079747;28;20110;-88
2023/08/24 05:33:09;;;;;;;10.38;5.93;;;;;;;;;;5061001;28;20020;-89
2023/08/24 05:35:34;;;;;;;10.02;6.28;;;;;;;;;;5081823;28;20022;-88
2023/08/24 05:37:59;;;;;;;11.95;6.60;;;;;;;;;;5078414;28;20016;-89
2023/08/24 05:40:24;;;;;;;11.60;5.90;;;;;;;;;;5065903;28;20022;-88
2023/08/24 05:42:50;;;;;;;10.73;5.95;;;;;;;;;;5058161;28;20020;-89
2023/08/24 05:45:15;;;;;;;14.55;6.03;;;;;;;;;;5058266;28;20024;-89
2023/08/24 05:47:40;;;;;;;9.98;5.93;;;;;;;;;;5076228;28;20028;-89
2023/08/24 05:50:06;;;;;;;10.10;5.75;;;;;;;;;;5058603;28;20047;-88
2023/08/24 05:52:31;;;;;;;10.32;5.43;;;;;;;;;;5058220;28;20094;-88
2023/08/24 05:54:57;;;;;;;11.73;6.35;;;;;;;;;;5058109;28;20463;-89
2023/08/24 05:57:22;;;;;;;12.77;5.82;;;;;;;;;;5057541;28;20035;-88
2023/08/24 05:59:47;;;;;;;9.07;5.32;;;;;;;;;;5075460;28;20032;-88
2023/08/24 06:02:13;;;;;;;9.88;5.80;;;;;;;;;;5056841;28;20017;-89
2023/08/24 06:04:38;;;;;;;10.07;5.65;;;;;;;;;;5077623;28;20029;-88
2023/08/24 06:07:04;;;;;;;15.07;6.70;;;;;;;;;;5089715;28;20028;-89
2023/08/24 06:09:30;;;;;;;10.65;5.72;;;;;;;;;;5057363;28;20021;-89
2023/08/24 06:11:55;;;;;;;11.35;5.72;;;;;;;;;;5058080;28;20482;-89
2023/08/24 06:14:20;;;;;;;11.45;6.18;;;;;;;;;;5074228;28;20160;-88
2023/08/24 06:16:46;;;;;;;12.75;5.78;;;;;;;;;;5078206;28;20023;-88
2023/08/24 06:19:11;;;;;;;14.35;6.18;;;;;;;;;;5095008;28;20113;-88
2023/08/24 06:21:38;;;;;;;18.73;7.13;;;;;;;;;;5072966;28;20031;-88
2023/08/24 06:24:04;;;;;;;10.80;6.65;;;;;;;;;;5059288;28;20104;-89
2023/08/24 06:26:29;;;;;;;12.55;6.13;;;;;;;;;;5074664;28;20108;-89
2023/08/24 06:28:55;;;;;;;11.98;5.97;;;;;;;;;;5057071;28;20036;-89
2023/08/24 06:31:21;;;;;;;13.05;5.72;;;;;;;;;;5097625;28;20540;-89
2023/08/24 06:33:48;;;;;;;12.60;5.68;;;;;;;;;;5094915;28;20020;-88
2023/08/24 06:36:13;;;;;;;14.02;6.32;;;;;;;;;;5076193;28;20026;-88
2023/08/24 06:38:39;;;;;;;10.10;5.43;;;;;;;;;;5064028;28;20056;-89
2023/08/24 06:41:06;;;;;;;12.05;5.80;;;;;;;;;;5056382;28;20107;-89
2023/08/24 06:43:32;;;;;;;11.35;5.95;;;;;;;;;;5055913;28;20486;-88
2023/08/24 06:45:57;;;;;;;13.65;6.28;;;;;;;;;;5056173;28;20522;-88
2023/08/24 06:48:22;;;;;;;16.10;5.82;;;;;;;;;;5059128;28;20032;-88
2023/08/24 06:50:48;;;;;;;9.90;6.10;;;;;;;;;;5056224;28;20012;-88
2023/08/24 06:53:14;;;;;;;10.23;5.68;;;;;;;;;;5056552;28;20012;-88
2023/08/24 06:55:40;;;;;;;9.13;5.57;;;;;;;;;;5074283;28;20044;-89
2023/08/24 06:58:05;;;;;;;9.13;5.32;;;;;;;;;;5071666;28;20027;-89
2023/08/24 07:00:30;;;;;;;11.98;5.05;;;;;;;;;;5056146;28;20028;-88
2023/08/24 07:02:56;;;;;;;11.85;5.35;;;;;;;;;;5057319;28;20128;-89
2023/08/24 07:05:21;;;;;;;12.05;5.93;;;;;;;;;;5065458;28;20050;-89
2023/08/24 07:07:47;;;;;;;10.55;5.82;;;;;;;;;;5064028;28;20108;-88
2023/08/24 07:10:12;;;;;;;12.85;5.43;;;;;;;;;;5073785;28;20185;-89
2023/08/24 07:12:41;;;;;;;13.77;5.05;;;;;;;;;;5057130;28;20083;-89
2023/08/24 07:15:07;;;;;;;12.35;5.85;;;;;;;;;;5089445;28;20013;-89
2023/08/24 07:17:32;;;;;;;13.20;6.13;;;;;;;;;;5056455;28;20028;-89
2023/08/24 07:19:57;;;;;;;12.57;6.00;;;;;;;;;;5056809;28;20028;-89
2023/08/24 07:22:23;;;;;;;11.70;5.22;;;;;;;;;;5074897;28;20012;-88
2023/08/24 07:24:52;;;;;;;17.88;5.93;;;;;;;;;;5084353;28;20028;-88
2023/08/24 07:27:17;;;;;;;11.63;5.18;;;;;;;;;;5066737;28;20013;-89
2023/08/24 07:29:43;;;;;;;10.80;5.57;;;;;;;;;;5077295;28;20024;-91
2023/08/24 07:32:08;;;;;;;13.98;5.00;;;;;;;;;;5079827;28;20023;-90
2023/08/24 07:34:34;;;;;;;13.98;5.20;;;;;;;;;;5069846;28;20016;-88
2023/08/24 07:37:02;;;;;;;11.40;5.15;;;;;;;;;;5070786;28;20027;-89
2023/08/24 07:39:27;;;;;;;8.85;4.57;;;;;;;;;;5068487;28;20027;-88
2023/08/24 07:41:53;;;;;;;8.88;4.07;;;;;;;;;;5084366;28;20028;-88
2023/08/24 07:44:18;;;;;;;10.60;4.63;;;;;;;;;;5061461;28;20021;-88
2023/08/24 07:46:44;;;;;;;16.45;5.20;;;;;;;;;;5066706;28;20773;-88
2023/08/24 07:49:09;;;;;;;8.30;4.75;;;;;;;;;;5052092;28;20025;-87
2023/08/24 07:51:34;;;;;;;11.35;4.82;;;;;;;;;;5054176;28;20012;-87
2023/08/24 07:54:00;;;;;;;10.02;4.97;;;;;;;;;;5054376;28;20043;-87
2023/08/24 07:56:25;;;;;;;7.97;4.22;;;;;;;;;;5072738;28;20062;-87
2023/08/24 07:58:50;;;;;;;7.10;4.63;;;;;;;;;;5064749;28;20039;-87
2023/08/24 08:01:16;;;;;;;8.85;4.45;;;;;;;;;;5059718;28;20056;-87
2023/08/24 08:03:41;;;;;;;8.82;4.30;;;;;;;;;;5054963;28;20020;-87
2023/08/24 08:06:06;;;;;;;8.48;4.45;;;;;;;;;;5068405;28;20324;-87
2023/08/24 08:08:31;;;;;;;10.52;4.32;;;;;;;;;;5057752;28;20032;-87
2023/08/24 08:11:00;;;;;;;14.13;4.47;;;;;;;;;;5060986;28;20024;-87
2023/08/24 08:13:27;;;;;;;10.00;4.85;;;;;;;;;;5068393;28;20468;-87
2023/08/24 08:15:53;;;;;;;7.80;4.38;;;;;;;;;;5081337;28;20471;-87
2023/08/24 08:18:18;;;;;;;13.40;4.05;;;;;;;;;;5072175;28;20031;-87
2023/08/24 08:20:43;;;;;;;9.40;4.45;;;;;;;;;;5061819;28;20043;-87
2023/08/24 08:23:09;;;;;;;7.72;3.97;;;;;;;;;;5081443;28;20024;-88
2023/08/24 08:25:37;;;;;;;7.03;4.18;;;;;;;;;;5062373;28;20017;-87
2023/08/24 08:28:03;;;;;;;7.28;4.68;;;;;;;;;;5054541;28;20078;-87
2023/08/24 08:30:31;;;;;;;11.07;4.20;;;;;;;;;;5052897;28;20017;-87
2023/08/24 08:32:56;;;;;;;9.90;4.07;;;;;;;;;;5065626;28;20108;-87
2023/08/24 08:35:25;;;;;;;8.25;3.72;;;;;;;;;;5045798;28;20415;-87
2023/08/24 08:37:53;;;;;;;14.20;4.43;;;;;;;;;;5055381;28;20111;-87
2023/08/24 08:40:19;;;;;;;9.40;4.07;;;;;;;;;;5055819;28;20080;-87
2023/08/24 08:42:45;;;;;;;8.48;4.40;;;;;;;;;;5055061;28;20035;-87
2023/08/24 08:45:10;;;;;;;11.13;4.90;;;;;;;;;;5064859;28;20016;-87
2023/08/24 08:47:37;;;;;;;7.47;3.83;;;;;;;;;;5073144;28;20053;-86
2023/08/24 08:50:03;;;;;;;11.90;3.75;;;;;;;;;;5070365;28;20025;-87
2023/08/24 08:52:28;;;;;;;7.43;4.00;;;;;;;;;;5075599;28;20008;-87
2023/08/24 08:54:56;;;;;;;7.90;3.80;;;;;;;;;;5058541;28;20460;-87
2023/08/24 08:57:22;;;;;;;8.98;3.92;;;;;;;;;;5059100;28;20505;-87
2023/08/24 08:59:50;;;;;;;11.13;4.10;;;;;;;;;;5078760;28;20121;-87
2023/08/24 09:02:18;;;;;;;8.77;4.18;;;;;;;;;;5057532;28;20374;-87
2023/08/24 09:04:44;;;;;;;9.48;3.70;;;;;;;;;;5069825;28;20384;-87
2023/08/24 09:07:11;;;;;;;9.23;3.95;;;;;;;;;;5076251;28;20037;-87
2023/08/24 09:09:37;;;;;;;14.38;4.63;;;;;;;;;;5068924;28;20012;-87
2023/08/24 09:12:06;;;;;;;13.23;5.10;;;;;;;;;;5056106;28;20012;-87
2023/08/24 09:14:32;;;;;;;10.57;4.72;;;;;;;;;;5053135;28;20025;-87
2023/08/24 09:16:58;;;;;;;9.25;4.32;;;;;;;;;;5048827;28;20090;-86
2023/08/24 09:19:32;;;;;;;9.70;4.25;;;;;;;;;;5049734;28;20505;-87
2023/08/24 09:22:01;;;;;;;17.08;4.80;;;;;;;;;;5051102;28;20471;-88
2023/08/24 09:24:33;;;;;;;12.52;4.63;;;;;;;;;;5057697;28;20028;-86
2023/08/24 09:26:59;;;;;;;10.13;5.38;;;;;;;;;;5063049;28;20419;-87
2023/08/24 09:29:24;;;;;;;7.90;4.18;;;;;;;;;;5047894;28;20009;-91
2023/08/24 09:31:55;;;;;;;7.53;4.20;;;;;;;;;;5073882;28;20036;-92
2023/08/24 09:34:20;;;;;;;7.88;4.13;;;;;;;;;;5057881;28;20052;-92
2023/08/24 09:36:46;;;;;;;10.95;3.72;;;;;;;;;;5074382;28;20017;-92
2023/08/24 09:39:13;;;;;;;8.00;4.20;;;;;;;;;;5072311;28;20024;-92
2023/08/24 09:41:43;;;;;;;11.20;4.82;;;;;;;;;;5054398;28;20016;-92
2023/08/24 09:44:08;;;;;;;11.93;5.68;;;;;;;;;;5089709;28;20063;-93
2023/08/24 09:46:40;;;;;;;13.00;5.15;;;;;;;;;;5053747;28;20040;-93
2023/08/24 09:49:05;;;;;;;;;;;;;;;;;;5069487;28;20017;-92
2023/08/24 09:51:31;;;;;;;9.45;4.70;;;;;;;;;;5057998;28;19942;-93
2023/08/24 09:53:58;;;;;;;9.25;5.45;;;;;;;;;;5075900;28;20828;-93
2023/08/24 09:56:27;;;;;;;13.88;5.43;;;;;;;;;;5078828;28;20027;-93
2023/08/24 09:58:53;;;;;;;11.95;6.03;;;;;;;;;;5075756;28;20027;-92
2023/08/24 10:01:19;;;;;;;11.60;5.35;;;;;;;;;;5057951;28;20032;-94
2023/08/24 10:03:46;;;;;;;12.43;5.38;;;;;;;;;;5058543;28;20028;-93
2023/08/24 10:06:12;;;;;;;10.27;4.60;;;;;;;;;;5075129;28;20531;-93
2023/08/24 10:08:39;;;;;;;7.47;4.18;;;;;;;;;;5078151;28;20028;-94
2023/08/24 10:11:05;;;;;;;8.20;4.70;;;;;;;;;;5065617;28;20008;-91
2023/08/24 10:13:33;;;;;;;10.57;4.47;;;;;;;;;;5063073;28;20016;-92
2023/08/24 10:15:59;;;;;;;7.57;4.25;;;;;;;;;;5061501;28;20364;-92
2023/08/24 10:18:26;;;;;;;8.50;4.78;;;;;;;;;;5057986;28;20023;-92
2023/08/24 10:20:52;;;;;;;12.68;5.05;;;;;;;;;;5062060;28;20024;-92
2023/08/24 10:23:19;;;;;;;12.15;5.03;;;;;;;;;;5048325;28;20071;-93
2023/08/24 10:25:49;;;;;;;11.75;4.50;;;;;;;;;;5061535;28;20493;-92
2023/08/24 10:28:15;;;;;;;15.82;4.80;;;;;;;;;;5057454;28;20054;-93
2023/08/24 10:30:43;;;;;;;14.68;4.72;;;;;;;;;;5075310;28;20025;-94
2023/08/24 10:33:11;;;;;;;6.65;4.07;;;;;;;;;;5074289;28;20012;-92
2023/08/24 10:35:36;;;;;;;10.57;4.28;;;;;;;;;;5075276;28;20020;-92
2023/08/24 10:38:08;;;;;;;10.23;4.45;;;;;;;;;;5061936;28;20085;-91
2023/08/24 10:40:38;;;;;;;10.48;4.75;;;;;;;;;;5074000;28;20021;-91
2023/08/24 10:43:05;;;;;;;8.20;5.25;;;;;;;;;;5053927;28;20085;-91
2023/08/24 10:45:49;;;;;;;10.05;6.03;;;;;;;;;;5069581;28;20039;-91
2023/08/24 10:48:15;;;;;;;15.50;6.40;;;;;;;;;;5073509;28;20427;-90
2023/08/24 10:50:43;;;;;;;12.35;6.88;;;;;;;;;;5060522;28;20138;-91
2023/08/24 10:53:10;;;;;;;12.73;7.00;;;;;;;;;;5054031;28;20029;-91
2023/08/24 10:55:37;;;;;;;15.20;6.55;;;;;;;;;;5067388;28;20020;-89
2023/08/24 10:58:02;;;;;;;12.30;6.57;;;;;;;;;;5059959;28;20009;-90
2023/08/24 11:00:31;;;;;;;9.20;6.10;;;;;;;;;;5057175;28;20034;-88
2023/08/24 11:02:57;;;;;;;8.98;5.43;;;;;;;;;;5071865;28;20020;-88
2023/08/24 11:05:22;;;;;;;11.10;5.90;;;;;;;;;;5060128;28;20078;-89
2023/08/24 11:07:50;;;;;;;8.95;5.28;;;;;;;;;;5058470;28;20020;-88
2023/08/24 11:10:16;;;;;;;11.60;5.97;;;;;;;;;;5055797;28;20074;-88
2023/08/24 11:13:00;;;;;;;12.68;5.55;;;;;;;;;;5055577;28;20013;-88
2023/08/24 11:15:41;;;;;;;13.25;6.35;;;;;;;;;;5060185;28;20115;-88
2023/08/24 11:18:18;;;;;;;12.07;5.50;;;;;;;;;;5064519;28;20024;-89
2023/08/24 11:20:48;;;;;;;10.77;4.93;;;;;;;;;;5066648;28;20075;-89
2023/08/24 11:23:17;;;;;;;11.68;5.28;;;;;;;;;;5056167;28;20297;-88
2023/08/24 11:25:43;;;;;;;10.65;6.63;;;;;;;;;;5064653;28;20031;-87
2023/08/24 11:28:09;;;;;;;10.68;5.78;;;;;;;;;;5074121;28;20044;-87
2023/08/24 11:30:35;;;;;;;13.27;4.72;;;;;;;;;;5062142;28;20016;-85
2023/08/24 11:33:04;;;;;;;9.95;5.00;;;;;;;;;;5078779;28;20520;-85
2023/08/24 11:35:35;;;;;;;10.05;5.22;;;;;;;;;;5053629;28;20020;-85
2023/08/24 11:38:00;;;;;;;11.43;4.93;;;;;;;;;;5053514;28;20128;-85
2023/08/24 11:40:28;;;;;;;11.20;5.63;;;;;;;;;;5081337;28;20394;-85
2023/08/24 11:43:01;;;;;;;11.60;4.88;;;;;;;;;;5061960;28;20116;-85
2023/08/24 11:45:34;;;;;;;11.98;5.13;;;;;;;;;;5081758;28;20036;-85
2023/08/24 11:48:00;;;;;;;12.43;5.60;;;;;;;;;;5073240;28;20024;-85
2023/08/24 11:50:26;;;;;;;12.40;6.05;;;;;;;;;;5074935;28;20028;-85
2023/08/24 11:52:52;;;;;;;14.60;6.10;;;;;;;;;;5058273;28;20024;-85
2023/08/24 11:55:18;;;;;;;10.93;6.03;;;;;;;;;;5053372;28;20086;-85
2023/08/24 11:57:43;;;;;;;13.55;6.65;;;;;;;;;;5086325;28;20020;-84
2023/08/24 12:00:09;;;;;;;11.02;6.05;;;;;;;;;;5074584;28;20107;-85
2023/08/24 12:02:34;;;;;;;9.52;5.85;;;;;;;;;;5072723;28;20077;-84
2023/08/24 12:05:02;;;;;;;9.48;5.18;;;;;;;;;;5068076;28;20476;-85
2023/08/24 12:07:27;;;;;;;13.98;5.63;;;;;;;;;;5072663;28;20016;-84
2023/08/24 12:09:54;;;;;;;9.52;4.68;;;;;;;;;;5055179;28;20019;-84
2023/08/24 12:12:23;;;;;;;24.73;5.38;;;;;;;;;;5081820;28;20030;-85
2023/08/24 12:14:48;;;;;;;12.55;5.80;;;;;;;;;;5073129;28;20031;-84
2023/08/24 12:17:15;;;;;;;16.48;8.20;;;;;;;;;;5055682;28;20028;-84
2023/08/24 12:19:44;;;;;;;13.15;7.65;;;;;;;;;;5053742;28;20127;-85
2023/08/24 12:22:19;;;;;;;11.15;7.22;;;;;;;;;;5082080;28;20020;-84
2023/08/24 12:25:00;;;;;;;12.98;6.88;;;;;;;;;;5083992;28;20429;-85
2023/08/24 12:27:26;;;;;;;10.13;6.40;;;;;;;;;;5073498;28;20503;-85
2023/08/24 12:29:52;;;;;;;8.95;5.00;;;;;;;;;;5077602;28;20089;-85
2023/08/24 12:32:26;;;;;;;12.30;5.90;;;;;;;;;;5096055;28;20462;-85
2023/08/24 12:34:51;;;;;;;10.07;6.70;;;;;;;;;;5096273;28;20012;-85
2023/08/24 12:37:17;;;;;;;11.48;6.40;;;;;;;;;;5080736;28;20024;-85
2023/08/24 12:39:42;;;;;;;15.95;7.18;;;;;;;;;;5077487;28;20089;-85
2023/08/24 12:42:10;;;;;;;10.32;5.90;;;;;;;;;;5077930;28;20028;-85
2023/08/24 12:44:36;;;;;;;13.60;5.40;;;;;;;;;;5065803;28;20028;-85
2023/08/24 12:47:02;;;;;;;10.43;5.18;;;;;;;;;;5095572;28;20012;-85
2023/08/24 12:49:30;;;;;;;9.93;6.07;;;;;;;;;;5062571;28;20024;-85
2023/08/24 12:51:56;;;;;;;8.52;4.88;;;;;;;;;;5078506;28;20022;-85
2023/08/24 12:54:21;;;;;;;9.85;4.80;;;;;;;;;;5099162;28;20024;-85
2023/08/24 12:56:47;;;;;;;12.27;5.25;;;;;;;;;;5080364;28;20460;-84
2023/08/24 12:59:13;;;;;;;13.48;6.10;;;;;;;;;;5082212;28;20031;-85
2023/08/24 13:01:38;;;;;;;9.40;5.05;;;;;;;;;;5082993;28;20012;-85
2023/08/24 13:04:06;;;;;;;8.40;4.93;;;;;;;;;;5097384;28;20012;-85
2023/08/24 13:06:32;;;;;;;13.10;5.60;;;;;;;;;;5064457;28;20028;-85
2023/08/24 13:08:57;;;;;;;13.13;5.25;;;;;;;;;;5065222;28;20040;-85
2023/08/24 13:11:24;;;;;;;9.85;5.20;;;;;;;;;;5049994;28;20017;-85
2023/08/24 13:13:49;;;;;;;10.20;6.47;;;;;;;;;;5072799;28;20070;-85
2023/08/24 13:16:17;;;;;;;16.08;6.88;;;;;;;;;;5086565;28;20063;-85
2023/08/24 13:18:45;;;;;;;11.25;6.15;;;;;;;;;;5066571;28;20024;-85
2023/08/24 13:21:10;;;;;;;13.10;5.53;;;;;;;;;;5078116;28;20376;-85
2023/08/24 13:23:36;;;;;;;11.48;5.15;;;;;;;;;;5058115;28;20078;-85
2023/08/24 13:26:01;;;;;;;12.07;6.00;;;;;;;;;;5095632;28;20020;-85
2023/08/24 13:28:27;;;;;;;12.35;4.75;;;;;;;;;;5067840;28;20013;-86
2023/08/24 13:30:53;;;;;;;13.38;5.40;;;;;;;;;;5075032;28;20470;-86
2023/08/24 13:33:19;;;;;;;7.63;4.50;;;;;;;;;;5067346;28;20021;-85
2023/08/24 13:35:44;;;;;;;8.77;4.97;;;;;;;;;;5073422;28;20027;-85
2023/08/24 13:38:10;;;;;;;11.30;4.90;;;;;;;;;;5072505;28;20025;-85
2023/08/24 13:40:35;;;;;;;8.10;4.10;;;;;;;;;;5088139;28;20060;-86
2023/08/24 13:43:00;;;;;;;5.57;3.55;;;;;;;;;;5063531;28;20081;-85
2023/08/24 13:45:26;;;;;;;9.25;3.42;;;;;;;;;;5076561;28;20031;-85
2023/08/24 13:47:51;;;;;;;8.68;3.20;;;;;;;;;;5076748;28;20012;-85
2023/08/24 13:50:17;;;;;;;4.70;2.60;;;;;;;;;;5065101;28;20024;-84
2023/08/24 13:52:45;;;;;;;4.90;2.70;;;;;;;;;;5078173;28;20031;-85
2023/08/24 13:55:10;;;;;;;4.05;2.65;;;;;;;;;;5076295;28;20031;-85
2023/08/24 13:57:36;;;;;;;5.53;2.50;;;;;;;;;;5069348;28;20036;-85
2023/08/24 14:00:03;;;;;;;4.00;2.60;;;;;;;;;;5062380;28;20020;-85
2023/08/24 14:02:29;;;;;;;4.35;2.10;;;;;;;;;;5064246;28;20024;-86
2023/08/24 14:04:55;;;;;;;4.30;1.83;;;;;;;;;;5060168;28;20016;-86
2023/08/24 14:07:20;;;;;;;9.05;2.42;;;;;;;;;;5055232;28;20080;-86
2023/08/24 14:09:46;;;;;;;3.58;1.90;;;;;;;;;;5060041;28;20016;-87
2023/08/24 14:12:11;;;;;;;4.72;2.30;;;;;;;;;;5058221;28;20023;-88
2023/08/24 14:14:37;;;;;;;3.80;2.03;;;;;;;;;;5071118;28;20035;-88
2023/08/24 14:17:05;;;;;;;3.65;1.70;;;;;;;;;;5060527;28;20119;-88
2023/08/24 14:19:30;;;;;;;5.05;2.20;;;;;;;;;;5057568;28;20514;-88
2023/08/24 14:21:58;;;;;;;5.88;2.10;;;;;;;;;;5057737;28;20089;-88
2023/08/24 14:24:23;;;;;;;4.38;1.75;;;;;;;;;;5072347;28;20016;-88
2023/08/24 14:26:49;;;;;;;4.13;1.83;;;;;;;;;;5076028;28;20020;-87
2023/08/24 14:29:14;;;;;;;4.60;1.80;;;;;;;;;;5059238;28;20016;-87
2023/08/24 14:31:40;;;;;;;6.65;2.50;;;;;;;;;;5075954;28;20063;-87